sensor_id;sensor_type;location;lat;lon;timestamp;pressure;altitude;pressure_sealevel;temperature;humidity
61128;BME280;47013;42.664;23.242;2023-04-05T00:00:30;93540.25;;;0.92;88.74
61128;BME280;47013;42.664;23.242;2023-04-05T00:03:03;93536.09;;;0.94;89.03
61128;BME280;47013;42.664;23.242;2023-04-05T00:05:28;93533.69;;;0.89;88.24
61128;BME280;47013;42.664;23.242;2023-04-05T00:08:02;93534.34;;;0.82;89.73
61128;BME280;47013;42.664;23.242;2023-04-05T00:10:28;93529.03;;;0.82;89.23
61128;BME280;47013;42.664;23.242;2023-04-05T00:12:53;93537.03;;;0.82;88.21
61128;BME280;47013;42.664;23.242;2023-04-05T00:15:18;93529.03;;;0.82;87.93
61128;BME280;47013;42.664;23.242;2023-04-05T00:17:44;93530.56;;;0.83;88.51
61128;BME280;47013;42.664;23.242;2023-04-05T00:20:09;93527.84;;;0.80;89.15
61128;BME280;47013;42.664;23.242;2023-04-05T00:22:36;93526.06;;;0.87;89.68
61128;BME280;47013;42.664;23.242;2023-04-05T00:25:02;93534.19;;;0.95;89.25
61128;BME280;47013;42.664;23.242;2023-04-05T00:27:28;93532.31;;;0.95;88.65
61128;BME280;47013;42.664;23.242;2023-04-05T00:29:53;93522.91;;;0.82;89.34
61128;BME280;47013;42.664;23.242;2023-04-05T00:32:20;93539.19;;;0.77;88.84
61128;BME280;47013;42.664;23.242;2023-04-05T00:34:45;93542.00;;;0.84;89.84
61128;BME280;47013;42.664;23.242;2023-04-05T00:37:10;93539.03;;;0.89;89.50
61128;BME280;47013;42.664;23.242;2023-04-05T00:39:36;93541.72;;;0.89;88.80
61128;BME280;47013;42.664;23.242;2023-04-05T00:42:04;93540.16;;;0.88;89.27
61128;BME280;47013;42.664;23.242;2023-04-05T00:44:30;93541.22;;;0.83;89.15
61128;BME280;47013;42.664;23.242;2023-04-05T00:46:59;93537.66;;;0.76;90.42
61128;BME280;47013;42.664;23.242;2023-04-05T00:49:25;93534.00;;;0.84;89.97
61128;BME280;47013;42.664;23.242;2023-04-05T00:51:50;93539.91;;;0.93;89.85
61128;BME280;47013;42.664;23.242;2023-04-05T00:54:16;93536.88;;;0.75;89.12
61128;BME280;47013;42.664;23.242;2023-04-05T00:56:42;93541.75;;;0.70;89.38
61128;BME280;47013;42.664;23.242;2023-04-05T00:59:07;93538.66;;;0.68;89.60
61128;BME280;47013;42.664;23.242;2023-04-05T01:01:33;93539.50;;;0.72;89.28
61128;BME280;47013;42.664;23.242;2023-04-05T01:04:02;93543.22;;;0.67;89.45
61128;BME280;47013;42.664;23.242;2023-04-05T01:06:39;93538.38;;;0.73;90.06
61128;BME280;47013;42.664;23.242;2023-04-05T01:09:18;93542.31;;;0.79;90.01
61128;BME280;47013;42.664;23.242;2023-04-05T01:11:47;93537.28;;;0.77;90.05
61128;BME280;47013;42.664;23.242;2023-04-05T01:14:13;93542.06;;;0.87;89.44
61128;BME280;47013;42.664;23.242;2023-04-05T01:16:38;93549.84;;;0.96;89.21
61128;BME280;47013;42.664;23.242;2023-04-05T01:19:04;93546.53;;;1.03;88.31
61128;BME280;47013;42.664;23.242;2023-04-05T01:32:06;93556.22;;;1.11;86.64
61128;BME280;47013;42.664;23.242;2023-04-05T01:34:38;93552.72;;;1.07;87.23
61128;BME280;47013;42.664;23.242;2023-04-05T01:37:06;93559.97;;;1.06;86.44
61128;BME280;47013;42.664;23.242;2023-04-05T01:39:32;93557.97;;;1.03;86.69
61128;BME280;47013;42.664;23.242;2023-04-05T01:41:59;93555.91;;;0.93;86.93
61128;BME280;47013;42.664;23.242;2023-04-05T01:44:25;93560.34;;;0.85;86.64
61128;BME280;47013;42.664;23.242;2023-04-05T01:46:50;93553.09;;;0.86;87.34
61128;BME280;47013;42.664;23.242;2023-04-05T01:49:16;93555.13;;;0.93;87.55
61128;BME280;47013;42.664;23.242;2023-04-05T01:51:41;93560.94;;;0.98;88.00
61128;BME280;47013;42.664;23.242;2023-04-05T01:54:07;93553.34;;;1.00;87.08
61128;BME280;47013;42.664;23.242;2023-04-05T01:56:32;93554.47;;;0.99;87.76
61128;BME280;47013;42.664;23.242;2023-04-05T01:58:57;93555.66;;;1.02;88.05
61128;BME280;47013;42.664;23.242;2023-04-05T02:01:22;93549.97;;;1.03;87.28
61128;BME280;47013;42.664;23.242;2023-04-05T02:03:48;93548.94;;;1.08;87.06
61128;BME280;47013;42.664;23.242;2023-04-05T02:06:13;93553.13;;;1.09;86.37
61128;BME280;47013;42.664;23.242;2023-04-05T02:08:39;93555.03;;;1.08;85.80
61128;BME280;47013;42.664;23.242;2023-04-05T02:11:04;93547.81;;;1.09;85.42
61128;BME280;47013;42.664;23.242;2023-04-05T02:13:29;93546.63;;;1.06;85.81
61128;BME280;47013;42.664;23.242;2023-04-05T02:15:55;93553.78;;;1.02;86.12
61128;BME280;47013;42.664;23.242;2023-04-05T02:18:20;93555.41;;;0.87;86.86
61128;BME280;47013;42.664;23.242;2023-04-05T02:20:59;93560.38;;;0.89;87.08
61128;BME280;47013;42.664;23.242;2023-04-05T02:23:25;93552.78;;;0.91;86.89
61128;BME280;47013;42.664;23.242;2023-04-05T02:25:51;93557.44;;;0.94;87.54
61128;BME280;47013;42.664;23.242;2023-04-05T02:28:17;93563.56;;;0.95;86.68
61128;BME280;47013;42.664;23.242;2023-04-05T02:30:42;93555.47;;;0.91;86.56
61128;BME280;47013;42.664;23.242;2023-04-05T02:33:07;93556.28;;;0.92;86.17
61128;BME280;47013;42.664;23.242;2023-04-05T02:35:34;93555.91;;;0.93;86.34
61128;BME280;47013;42.664;23.242;2023-04-05T02:38:00;93559.63;;;0.88;86.75
61128;BME280;47013;42.664;23.242;2023-04-05T02:40:26;93552.25;;;0.82;85.64
61128;BME280;47013;42.664;23.242;2023-04-05T02:42:51;93552.25;;;0.82;86.91
61128;BME280;47013;42.664;23.242;2023-04-05T02:45:16;93553.41;;;0.81;87.79
61128;BME280;47013;42.664;23.242;2023-04-05T02:47:41;93551.19;;;0.86;86.97
61128;BME280;47013;42.664;23.242;2023-04-05T02:50:07;93542.47;;;0.89;86.13
61128;BME280;47013;42.664;23.242;2023-04-05T02:52:32;93544.78;;;0.91;86.24
61128;BME280;47013;42.664;23.242;2023-04-05T02:54:58;93550.44;;;0.86;86.71
61128;BME280;47013;42.664;23.242;2023-04-05T02:57:23;93550.44;;;0.86;86.72
61128;BME280;47013;42.664;23.242;2023-04-05T02:59:48;93549.19;;;0.80;86.95
61128;BME280;47013;42.664;23.242;2023-04-05T03:02:14;93552.22;;;0.78;87.36
61128;BME280;47013;42.664;23.242;2023-04-05T03:04:40;93543.50;;;0.81;86.51
61128;BME280;47013;42.664;23.242;2023-04-05T03:07:05;93544.13;;;0.75;87.08
61128;BME280;47013;42.664;23.242;2023-04-05T03:09:31;93551.13;;;0.83;86.97
61128;BME280;47013;42.664;23.242;2023-04-05T03:11:59;93548.06;;;0.81;86.65
61128;BME280;47013;42.664;23.242;2023-04-05T03:14:28;93547.34;;;0.84;86.52
61128;BME280;47013;42.664;23.242;2023-04-05T03:16:54;93547.63;;;0.79;87.14
61128;BME280;47013;42.664;23.242;2023-04-05T03:19:19;93552.41;;;0.70;86.55
61128;BME280;47013;42.664;23.242;2023-04-05T03:21:46;93549.44;;;0.75;87.40
61128;BME280;47013;42.664;23.242;2023-04-05T03:24:11;93549.09;;;0.76;87.71
61128;BME280;47013;42.664;23.242;2023-04-05T03:26:37;93545.03;;;0.82;88.06
61128;BME280;47013;42.664;23.242;2023-04-05T03:29:02;93545.75;;;0.79;87.64
61128;BME280;47013;42.664;23.242;2023-04-05T03:31:27;93541.53;;;0.78;87.23
61128;BME280;47013;42.664;23.242;2023-04-05T03:33:54;93539.97;;;0.77;86.61
61128;BME280;47013;42.664;23.242;2023-04-05T03:36:19;93547.28;;;0.80;87.19
61128;BME280;47013;42.664;23.242;2023-04-05T03:38:45;93544.25;;;0.82;88.29
61128;BME280;47013;42.664;23.242;2023-04-05T03:41:11;93547.03;;;0.89;89.54
61128;BME280;47013;42.664;23.242;2023-04-05T03:43:39;93548.25;;;0.92;89.41
61128;BME280;47013;42.664;23.242;2023-04-05T03:46:04;93548.59;;;0.90;88.40
61128;BME280;47013;42.664;23.242;2023-04-05T03:48:29;93556.91;;;0.85;89.45
61128;BME280;47013;42.664;23.242;2023-04-05T03:50:55;93554.22;;;0.85;88.77
61128;BME280;47013;42.664;23.242;2023-04-05T03:53:23;93556.53;;;0.86;90.03
61128;BME280;47013;42.664;23.242;2023-04-05T03:55:48;93562.03;;;0.94;92.14
61128;BME280;47013;42.664;23.242;2023-04-05T03:58:15;93561.25;;;0.93;90.38
61128;BME280;47013;42.664;23.242;2023-04-05T04:00:40;93561.31;;;0.97;89.35
61128;BME280;47013;42.664;23.242;2023-04-05T04:03:06;93560.91;;;0.95;89.93
61128;BME280;47013;42.664;23.242;2023-04-05T04:05:34;93562.22;;;0.85;89.98
61128;BME280;47013;42.664;23.242;2023-04-05T04:08:03;93563.00;;;0.85;93.17
61128;BME280;47013;42.664;23.242;2023-04-05T04:10:28;93567.94;;;0.83;89.25
61128;BME280;47013;42.664;23.242;2023-04-05T04:12:55;93564.84;;;0.81;88.35
61128;BME280;47013;42.664;23.242;2023-04-05T04:15:20;93566.03;;;0.84;88.98
61128;BME280;47013;42.664;23.242;2023-04-05T04:17:45;93567.56;;;0.85;87.55
61128;BME280;47013;42.664;23.242;2023-04-05T04:20:11;93570.94;;;0.82;87.10
61128;BME280;47013;42.664;23.242;2023-04-05T04:22:36;93571.31;;;0.80;87.61
61128;BME280;47013;42.664;23.242;2023-04-05T04:25:05;93568.69;;;0.84;88.22
61128;BME280;47013;42.664;23.242;2023-04-05T04:27:33;93578.91;;;0.78;88.75
61128;BME280;47013;42.664;23.242;2023-04-05T04:29:59;93576.53;;;0.77;88.36
61128;BME280;47013;42.664;23.242;2023-04-05T04:32:28;93573.19;;;0.80;87.71
61128;BME280;47013;42.664;23.242;2023-04-05T04:35:15;93577.06;;;0.82;88.19
61128;BME280;47013;42.664;23.242;2023-04-05T04:37:53;93581.81;;;0.93;89.19
61128;BME280;47013;42.664;23.242;2023-04-05T04:40:18;93589.13;;;0.96;87.45
61128;BME280;47013;42.664;23.242;2023-04-05T04:42:45;93586.09;;;0.97;86.08
61128;BME280;47013;42.664;23.242;2023-04-05T04:45:13;93584.91;;;0.95;86.36
61128;BME280;47013;42.664;23.242;2023-04-05T04:47:42;93591.03;;;0.95;86.18
61128;BME280;47013;42.664;23.242;2023-04-05T04:50:08;93586.16;;;1.01;85.27
61128;BME280;47013;42.664;23.242;2023-04-05T04:52:34;93598.31;;;0.98;84.88
61128;BME280;47013;42.664;23.242;2023-04-05T04:54:59;93593.75;;;0.99;85.58
61128;BME280;47013;42.664;23.242;2023-04-05T04:57:27;93590.78;;;1.04;85.75
61128;BME280;47013;42.664;23.242;2023-04-05T04:59:52;93585.53;;;1.07;85.75
61128;BME280;47013;42.664;23.242;2023-04-05T05:04:48;93587.50;;;1.10;86.17
61128;BME280;47013;42.664;23.242;2023-04-05T05:07:13;93585.94;;;1.09;85.94
61128;BME280;47013;42.664;23.242;2023-04-05T05:09:38;93585.88;;;1.06;86.08
61128;BME280;47013;42.664;23.242;2023-04-05T05:12:03;93592.28;;;1.01;85.80
61128;BME280;47013;42.664;23.242;2023-04-05T05:14:32;93596.78;;;0.97;85.49
61128;BME280;47013;42.664;23.242;2023-04-05T05:16:57;93593.75;;;0.99;86.94
61128;BME280;47013;42.664;23.242;2023-04-05T05:19:25;93598.47;;;1.05;88.00
61128;BME280;47013;42.664;23.242;2023-04-05T05:21:51;93591.34;;;1.13;87.79
61128;BME280;47013;42.664;23.242;2023-04-05T05:24:18;93598.78;;;1.23;87.31
61128;BME280;47013;42.664;23.242;2023-04-05T05:26:43;93603.47;;;1.30;86.05
61128;BME280;47013;42.664;23.242;2023-04-05T05:29:08;93599.56;;;1.24;85.24
61128;BME280;47013;42.664;23.242;2023-04-05T05:31:34;93601.81;;;1.22;82.93
61128;BME280;47013;42.664;23.242;2023-04-05T05:34:00;93597.09;;;1.15;82.28
61128;BME280;47013;42.664;23.242;2023-04-05T05:36:25;93600.91;;;1.14;82.04
61128;BME280;47013;42.664;23.242;2023-04-05T05:38:52;93597.97;;;1.19;83.03
61128;BME280;47013;42.664;23.242;2023-04-05T05:41:18;93595.97;;;1.16;83.37
61128;BME280;47013;42.664;23.242;2023-04-05T05:43:43;93598.00;;;1.23;82.96
61128;BME280;47013;42.664;23.242;2023-04-05T05:46:08;93597.66;;;1.24;82.03
61128;BME280;47013;42.664;23.242;2023-04-05T05:48:34;93601.41;;;1.20;81.29
61128;BME280;47013;42.664;23.242;2023-04-05T05:51:00;93601.03;;;1.21;79.95
61128;BME280;47013;42.664;23.242;2023-04-05T05:53:26;93596.47;;;1.22;80.56
61128;BME280;47013;42.664;23.242;2023-04-05T05:55:51;93601.16;;;1.28;80.45
61128;BME280;47013;42.664;23.242;2023-04-05T05:58:16;93599.59;;;1.27;80.20
61128;BME280;47013;42.664;23.242;2023-04-05T06:00:41;93596.59;;;1.29;79.23
61128;BME280;47013;42.664;23.242;2023-04-05T06:03:08;93597.34;;;1.29;79.57
61128;BME280;47013;42.664;23.242;2023-04-05T06:05:33;93604.94;;;1.27;79.26
61128;BME280;47013;42.664;23.242;2023-04-05T06:07:59;93603.47;;;1.30;79.70
61128;BME280;47013;42.664;23.242;2023-04-05T06:10:24;93603.97;;;1.35;78.79
61128;BME280;47013;42.664;23.242;2023-04-05T06:12:49;93600.56;;;1.38;79.27
61128;BME280;47013;42.664;23.242;2023-04-05T06:15:15;93606.16;;;1.53;78.67
61128;BME280;47013;42.664;23.242;2023-04-05T06:17:40;93608.13;;;1.56;77.43
61128;BME280;47013;42.664;23.242;2023-04-05T06:20:08;93611.63;;;1.60;78.04
61128;BME280;47013;42.664;23.242;2023-04-05T06:22:35;93610.09;;;1.59;77.71
61128;BME280;47013;42.664;23.242;2023-04-05T06:25:00;93610.16;;;1.62;77.03
61128;BME280;47013;42.664;23.242;2023-04-05T06:27:28;93608.72;;;1.68;76.97
61128;BME280;47013;42.664;23.242;2023-04-05T06:29:54;93614.53;;;1.74;78.20
61128;BME280;47013;42.664;23.242;2023-04-05T06:32:19;93609.56;;;1.72;78.68
61128;BME280;47013;42.664;23.242;2023-04-05T06:34:45;93608.16;;;1.82;77.47
61128;BME280;47013;42.664;23.242;2023-04-05T06:37:12;93610.59;;;1.91;76.25
61128;BME280;47013;42.664;23.242;2023-04-05T06:39:38;93611.88;;;1.97;75.53
61128;BME280;47013;42.664;23.242;2023-04-05T06:42:03;93618.81;;;2.01;75.09
61128;BME280;47013;42.664;23.242;2023-04-05T06:44:28;93622.84;;;2.71;100.00
61128;BME280;47013;42.664;23.242;2023-04-05T06:46:54;93629.47;;;2.81;79.90
61128;BME280;47013;42.664;23.242;2023-04-05T06:49:19;93627.50;;;2.74;74.18
61128;BME280;47013;42.664;23.242;2023-04-05T06:51:44;93640.00;;;2.66;72.88
61128;BME280;47013;42.664;23.242;2023-04-05T06:54:09;93638.72;;;2.57;72.99
61128;BME280;47013;42.664;23.242;2023-04-05T06:56:35;93631.81;;;2.56;72.44
61128;BME280;47013;42.664;23.242;2023-04-05T06:59:01;93642.13;;;2.54;72.47
61128;BME280;47013;42.664;23.242;2023-04-05T07:01:28;93650.81;;;2.47;72.72
61128;BME280;47013;42.664;23.242;2023-04-05T07:03:53;93660.31;;;2.45;72.61
61128;BME280;47013;42.664;23.242;2023-04-05T07:06:18;93648.03;;;2.40;72.54
61128;BME280;47013;42.664;23.242;2023-04-05T07:08:43;93659.09;;;2.39;73.40
61128;BME280;47013;42.664;23.242;2023-04-05T07:11:09;93659.88;;;2.39;73.33
61128;BME280;47013;42.664;23.242;2023-04-05T07:13:36;93659.38;;;2.86;76.23
61128;BME280;47013;42.664;23.242;2023-04-05T07:16:02;93661.84;;;2.72;70.00
61128;BME280;47013;42.664;23.242;2023-04-05T07:18:27;93665.59;;;2.64;71.04
61128;BME280;47013;42.664;23.242;2023-04-05T07:20:55;93668.72;;;2.43;71.92
61128;BME280;47013;42.664;23.242;2023-04-05T07:23:23;93672.84;;;2.37;72.01
61128;BME280;47013;42.664;23.242;2023-04-05T07:25:49;93668.72;;;2.43;72.34
61128;BME280;47013;42.664;23.242;2023-04-05T07:28:14;93674.56;;;2.49;74.19
61128;BME280;47013;42.664;23.242;2023-04-05T07:30:39;93676.75;;;2.43;71.92
61128;BME280;47013;42.664;23.242;2023-04-05T07:33:05;93673.66;;;2.41;72.81
61128;BME280;47013;42.664;23.242;2023-04-05T07:35:30;93678.13;;;2.33;73.33
61128;BME280;47013;42.664;23.242;2023-04-05T07:37:56;93674.16;;;2.24;71.79
61128;BME280;47013;42.664;23.242;2023-04-05T07:40:21;93678.75;;;2.23;74.01
61128;BME280;47013;42.664;23.242;2023-04-05T07:42:46;93682.84;;;2.17;72.07
61128;BME280;47013;42.664;23.242;2023-04-05T07:45:12;93680.94;;;2.18;73.25
61128;BME280;47013;42.664;23.242;2023-04-05T07:47:37;93685.88;;;2.16;72.54
61128;BME280;47013;42.664;23.242;2023-04-05T07:50:02;93685.78;;;2.09;72.57
61128;BME280;47013;42.664;23.242;2023-04-05T07:52:28;93688.28;;;1.98;73.73
61128;BME280;47013;42.664;23.242;2023-04-05T07:54:54;93687.66;;;2.08;78.13
61128;BME280;47013;42.664;23.242;2023-04-05T07:57:19;93694.22;;;2.11;75.32
61128;BME280;47013;42.664;23.242;2023-04-05T07:59:45;93700.06;;;2.20;79.10
61128;BME280;47013;42.664;23.242;2023-04-05T08:02:11;93703.97;;;2.22;75.44
61128;BME280;47013;42.664;23.242;2023-04-05T08:04:37;93702.88;;;2.27;74.12
61128;BME280;47013;42.664;23.242;2023-04-05T08:07:02;93705.50;;;2.23;73.45
61128;BME280;47013;42.664;23.242;2023-04-05T08:09:27;93703.84;;;2.15;72.11
61128;BME280;47013;42.664;23.242;2023-04-05T08:11:53;93713.97;;;2.06;72.29
61128;BME280;47013;42.664;23.242;2023-04-05T08:14:24;93711.25;;;2.02;73.15
61128;BME280;47013;42.664;23.242;2023-04-05T08:16:49;93713.22;;;2.05;74.02
61128;BME280;47013;42.664;23.242;2023-04-05T08:19:15;93707.16;;;2.09;73.84
61128;BME280;47013;42.664;23.242;2023-04-05T08:21:41;93712.97;;;2.14;74.22
61128;BME280;47013;42.664;23.242;2023-04-05T08:24:06;93716.66;;;2.06;74.44
61128;BME280;47013;42.664;23.242;2023-04-05T08:26:32;93707.50;;;2.07;75.13
61128;BME280;47013;42.664;23.242;2023-04-05T08:28:57;93717.72;;;2.01;73.40
61128;BME280;47013;42.664;23.242;2023-04-05T08:31:22;93716.25;;;2.04;74.38
61128;BME280;47013;42.664;23.242;2023-04-05T08:33:47;93722.19;;;2.17;75.29
61128;BME280;47013;42.664;23.242;2023-04-05T08:36:13;93715.34;;;2.19;75.61
61128;BME280;47013;42.664;23.242;2023-04-05T08:38:38;93721.97;;;2.25;75.19
61128;BME280;47013;42.664;23.242;2023-04-05T08:46:08;93723.50;;;2.03;75.51
61128;BME280;47013;42.664;23.242;2023-04-05T08:48:33;93720.88;;;2.07;74.51
61128;BME280;47013;42.664;23.242;2023-04-05T08:51:00;93726.31;;;2.11;74.87
61128;BME280;47013;42.664;23.242;2023-04-05T08:53:25;93729.44;;;2.16;72.53
61128;BME280;47013;42.664;23.242;2023-04-05T08:55:52;93734.84;;;2.20;74.32
61128;BME280;47013;42.664;23.242;2023-04-05T08:58:20;93738.28;;;2.20;74.34
61128;BME280;47013;42.664;23.242;2023-04-05T09:00:51;93732.66;;;2.25;74.14
61128;BME280;47013;42.664;23.242;2023-04-05T09:03:17;93735.88;;;2.34;74.18
61128;BME280;47013;42.664;23.242;2023-04-05T09:05:44;93739.00;;;2.40;75.14
61128;BME280;47013;42.664;23.242;2023-04-05T09:08:10;93742.09;;;2.42;74.64
61128;BME280;47013;42.664;23.242;2023-04-05T09:10:36;93740.97;;;2.43;74.19
61128;BME280;47013;42.664;23.242;2023-04-05T09:13:01;93744.38;;;2.40;74.08
61128;BME280;47013;42.664;23.242;2023-04-05T09:15:27;93740.53;;;2.64;81.19
61128;BME280;47013;42.664;23.242;2023-04-05T09:17:53;93742.03;;;2.61;73.86
61128;BME280;47013;42.664;23.242;2023-04-05T09:20:19;93750.31;;;2.53;73.94
61128;BME280;47013;42.664;23.242;2023-04-05T09:22:47;93743.41;;;2.52;73.15
61128;BME280;47013;42.664;23.242;2023-04-05T09:27:56;93741.94;;;2.58;74.25
61128;BME280;47013;42.664;23.242;2023-04-05T09:30:21;93735.19;;;2.41;75.37
61128;BME280;47013;42.664;23.242;2023-04-05T09:32:47;93733.28;;;2.42;76.08
61128;BME280;47013;42.664;23.242;2023-04-05T09:35:24;93734.78;;;2.39;76.30
61128;BME280;47013;42.664;23.242;2023-04-05T09:37:53;93734.84;;;2.43;75.84
61128;BME280;47013;42.664;23.242;2023-04-05T09:40:18;93731.75;;;2.41;74.91
61128;BME280;47013;42.664;23.242;2023-04-05T09:42:44;93735.66;;;2.47;74.77
61128;BME280;47013;42.664;23.242;2023-04-05T09:45:10;93729.34;;;2.58;76.53
61128;BME280;47013;42.664;23.242;2023-04-05T09:47:35;93729.06;;;2.63;78.12
61128;BME280;47013;42.664;23.242;2023-04-05T09:50:01;93728.22;;;2.59;76.60
61128;BME280;47013;42.664;23.242;2023-04-05T09:52:30;93727.88;;;2.61;75.29
61128;BME280;47013;42.664;23.242;2023-04-05T09:54:56;93724.53;;;2.67;71.19
61128;BME280;47013;42.664;23.242;2023-04-05T09:57:22;93730.84;;;2.56;73.87
61128;BME280;47013;42.664;23.242;2023-04-05T09:59:50;93734.97;;;2.50;71.92
61128;BME280;47013;42.664;23.242;2023-04-05T10:02:15;93731.03;;;2.44;72.05
61128;BME280;47013;42.664;23.242;2023-04-05T10:04:41;93735.97;;;2.42;72.59
61128;BME280;47013;42.664;23.242;2023-04-05T10:07:11;93731.75;;;2.41;73.44
61128;BME280;47013;42.664;23.242;2023-04-05T10:09:37;93736.75;;;2.42;73.07
61128;BME280;47013;42.664;23.242;2023-04-05T10:12:03;93731.88;;;2.48;73.81
61128;BME280;47013;42.664;23.242;2023-04-05T10:14:31;93729.50;;;2.43;72.78
61128;BME280;47013;42.664;23.242;2023-04-05T10:17:03;93732.06;;;2.35;72.15
61128;BME280;47013;42.664;23.242;2023-04-05T10:19:36;93737.56;;;2.46;73.30
61128;BME280;47013;42.664;23.242;2023-04-05T10:22:01;93724.25;;;2.50;72.33
61128;BME280;47013;42.664;23.242;2023-04-05T10:27:03;93726.34;;;2.37;72.25
61128;BME280;47013;42.664;23.242;2023-04-05T10:29:33;93736.34;;;2.40;70.90
61128;BME280;47013;42.664;23.242;2023-04-05T10:32:10;93730.44;;;2.31;71.32
61128;BME280;47013;42.664;23.242;2023-04-05T10:34:55;93730.09;;;2.32;72.03
61128;BME280;47013;42.664;23.242;2023-04-05T10:37:26;93735.19;;;2.41;73.50
61128;BME280;47013;42.664;23.242;2023-04-05T10:39:54;93729.50;;;2.43;73.86
61128;BME280;47013;42.664;23.242;2023-04-05T10:42:26;93741.13;;;2.54;73.84
61128;BME280;47013;42.664;23.242;2023-04-05T10:45:03;93724.44;;;2.60;73.54
61128;BME280;47013;42.664;23.242;2023-04-05T10:47:41;93733.22;;;2.61;73.09
61128;BME280;47013;42.664;23.242;2023-04-05T10:50:07;93739.44;;;2.69;72.63
61128;BME280;47013;42.664;23.242;2023-04-05T10:52:33;93729.50;;;2.69;72.66
61128;BME280;47013;42.664;23.242;2023-04-05T10:55:02;93734.03;;;2.65;72.46
61128;BME280;47013;42.664;23.242;2023-04-05T10:57:28;93738.16;;;2.59;72.88
61128;BME280;47013;42.664;23.242;2023-04-05T10:59:54;93736.38;;;2.44;73.08
61128;BME280;47013;42.664;23.242;2023-04-05T11:02:20;93733.72;;;2.44;72.33
61128;BME280;47013;42.664;23.242;2023-04-05T11:04:46;93744.94;;;2.53;73.35
61128;BME280;47013;42.664;23.242;2023-04-05T11:07:19;93746.91;;;2.56;72.12
61128;BME280;47013;42.664;23.242;2023-04-05T11:10:01;93745.41;;;2.58;72.54
61128;BME280;47013;42.664;23.242;2023-04-05T11:20:38;93751.47;;;2.55;73.04
61128;BME280;47013;42.664;23.242;2023-04-05T11:23:03;93748.03;;;2.55;72.00
61128;BME280;47013;42.664;23.242;2023-04-05T11:25:35;93743.63;;;2.66;71.59
61128;BME280;47013;42.664;23.242;2023-04-05T11:28:01;93747.53;;;2.72;71.77
61128;BME280;47013;42.664;23.242;2023-04-05T11:33:10;93747.13;;;2.70;72.28
61128;BME280;47013;42.664;23.242;2023-04-05T11:35:35;93743.66;;;2.70;71.92
61128;BME280;47013;42.664;23.242;2023-04-05T11:40:29;93747.97;;;2.74;71.49
61128;BME280;47013;42.664;23.242;2023-04-05T11:43:15;93749.22;;;2.84;71.96
61128;BME280;47013;42.664;23.242;2023-04-05T11:45:56;93758.44;;;2.86;70.82
61128;BME280;47013;42.664;23.242;2023-04-05T11:48:21;93751.97;;;2.87;70.92
61128;BME280;47013;42.664;23.242;2023-04-05T11:50:47;93752.38;;;2.89;71.80
61128;BME280;47013;42.664;23.242;2023-04-05T11:53:15;93750.56;;;2.97;72.23
61128;BME280;47013;42.664;23.242;2023-04-05T11:55:42;93749.78;;;2.96;72.62
61128;BME280;47013;42.664;23.242;2023-04-05T11:58:28;93755.09;;;2.93;71.07
61128;BME280;47013;42.664;23.242;2023-04-05T12:00:57;93749.75;;;2.93;71.33
61128;BME280;47013;42.664;23.242;2023-04-05T12:03:23;93744.41;;;2.93;72.04
61128;BME280;47013;42.664;23.242;2023-04-05T12:05:49;93743.38;;;3.01;73.66
61128;BME280;47013;42.664;23.242;2023-04-05T12:08:15;93748.25;;;2.95;72.08
61128;BME280;47013;42.664;23.242;2023-04-05T12:10:43;93746.72;;;2.94;72.30
61128;BME280;47013;42.664;23.242;2023-04-05T12:13:11;93741.81;;;3.00;71.68
61128;BME280;47013;42.664;23.242;2023-04-05T12:15:37;93748.28;;;2.99;71.87
61128;BME280;47013;42.664;23.242;2023-04-05T12:18:03;93748.28;;;2.99;72.50
61128;BME280;47013;42.664;23.242;2023-04-05T12:20:28;93744.03;;;2.94;72.73
61128;BME280;47013;42.664;23.242;2023-04-05T12:22:54;93747.97;;;3.01;72.41
61128;BME280;47013;42.664;23.242;2023-04-05T12:25:20;93748.16;;;3.15;72.68
61128;BME280;47013;42.664;23.242;2023-04-05T12:27:46;93747.75;;;3.13;72.21
61128;BME280;47013;42.664;23.242;2023-04-05T12:30:18;93746.16;;;3.12;72.51
61128;BME280;47013;42.664;23.242;2023-04-05T12:35:14;93755.25;;;3.04;72.67
61128;BME280;47013;42.664;23.242;2023-04-05T12:37:40;93754.13;;;3.05;72.40
61128;BME280;47013;42.664;23.242;2023-04-05T12:40:06;93748.63;;;2.94;72.56
61128;BME280;47013;42.664;23.242;2023-04-05T12:42:35;93747.53;;;2.99;71.79
61128;BME280;47013;42.664;23.242;2023-04-05T12:45:05;93746.06;;;3.01;72.32
61128;BME280;47013;42.664;23.242;2023-04-05T12:47:33;93754.97;;;3.12;71.92
61128;BME280;47013;42.664;23.242;2023-04-05T12:50:09;93750.91;;;3.22;71.10
61128;BME280;47013;42.664;23.242;2023-04-05T12:52:34;93756.38;;;3.29;71.52
61128;BME280;47013;42.664;23.242;2023-04-05T12:55:00;93752.31;;;3.12;72.99
61128;BME280;47013;42.664;23.242;2023-04-05T12:57:34;93746.59;;;3.14;72.59
61128;BME280;47013;42.664;23.242;2023-04-05T13:00:00;93757.31;;;3.14;73.40
61128;BME280;47013;42.664;23.242;2023-04-05T13:02:25;93746.59;;;3.14;72.57
61128;BME280;47013;42.664;23.242;2023-04-05T13:04:51;93751.13;;;3.10;72.97
61128;BME280;47013;42.664;23.242;2023-04-05T13:07:16;93757.47;;;2.98;73.09
61128;BME280;47013;42.664;23.242;2023-04-05T13:09:41;93757.47;;;2.98;72.83
61128;BME280;47013;42.664;23.242;2023-04-05T13:12:06;93761.59;;;3.18;72.61
61128;BME280;47013;42.664;23.242;2023-04-05T13:14:32;93758.88;;;3.45;70.73
61128;BME280;47013;42.664;23.242;2023-04-05T13:16:57;93756.91;;;3.75;70.25
61128;BME280;47013;42.664;23.242;2023-04-05T13:19:22;93762.25;;;4.05;68.58
61128;BME280;47013;42.664;23.242;2023-04-05T13:21:48;93758.94;;;4.19;67.41
61128;BME280;47013;42.664;23.242;2023-04-05T13:24:13;93751.53;;;4.50;67.16
61128;BME280;47013;42.664;23.242;2023-04-05T13:26:38;93750.06;;;4.59;65.88
61128;BME280;47013;42.664;23.242;2023-04-05T13:29:03;93747.78;;;4.61;66.10
61128;BME280;47013;42.664;23.242;2023-04-05T13:31:29;93750.97;;;4.78;66.17
61128;BME280;47013;42.664;23.242;2023-04-05T13:33:54;93745.53;;;4.67;65.62
61128;BME280;47013;42.664;23.242;2023-04-05T13:36:19;93743.97;;;4.62;65.54